TimePST,TemperatureF,Dew PointF,Humidity,Sea Level PressureIn,VisibilityMPH,Wind Direction,Wind SpeedMPH,Gust SpeedMPH,PrecipitationIn,Events,Conditions,WindDirDegrees,DateUTC
12:52 AM,48.0,19.9,33,30.06,10.0,WNW,3.5,-,N/A,,Clear,300,2012-12-11 08:52:00
1:52 AM,48.9,19.9,32,30.05,10.0,WNW,4.6,-,N/A,,Clear,290,2012-12-11 09:52:00
2:52 AM,50.0,21.0,32,30.05,10.0,WNW,6.9,-,N/A,,Clear,300,2012-12-11 10:52:00
3:52 AM,48.0,21.0,34,30.04,10.0,Calm,Calm,-,N/A,,Clear,0,2012-12-11 11:52:00
4:52 AM,46.9,21.9,37,30.05,10.0,Calm,Calm,-,N/A,,Clear,0,2012-12-11 12:52:00
5:52 AM,45.0,21.9,40,30.06,10.0,Calm,Calm,-,N/A,,Clear,0,2012-12-11 13:52:00
6:52 AM,46.9,21.9,37,30.07,10.0,Calm,Calm,-,N/A,,Clear,0,2012-12-11 14:52:00
7:52 AM,51.1,23.0,33,30.09,10.0,SSW,5.8,-,N/A,,Clear,210,2012-12-11 15:52:00
8:52 AM,55.9,24.1,29,30.09,10.0,South,3.5,-,N/A,,Clear,180,2012-12-11 16:52:00
9:52 AM,57.9,28.9,33,30.10,10.0,ESE,3.5,-,N/A,,Clear,120,2012-12-11 17:52:00
11:52 AM,66.9,24.1,20,30.04,10.0,Variable,4.6,-,N/A,,Clear,0,2012-12-11 19:52:00
12:52 PM,66.9,24.1,20,30.00,10.0,Calm,Calm,-,N/A,,Clear,0,2012-12-11 20:52:00
1:52 PM,68.0,24.1,19,29.98,10.0,ESE,3.5,-,N/A,,Clear,110,2012-12-11 21:52:00
2:52 PM,69.1,27.0,21,29.97,10.0,ENE,3.5,-,N/A,,Clear,60,2012-12-11 22:52:00
3:52 PM,68.0,26.1,21,29.96,10.0,Calm,Calm,-,N/A,,Clear,0,2012-12-11 23:52:00
4:52 PM,64.0,27.0,25,29.96,10.0,Calm,Calm,-,N/A,,Clear,0,2012-12-12 00:52:00
5:52 PM,62.1,27.0,26,29.95,10.0,Calm,Calm,-,N/A,,Clear,0,2012-12-12 01:52:00
6:52 PM,55.9,25.0,30,29.96,10.0,Calm,Calm,-,N/A,,Clear,0,2012-12-12 02:52:00
7:52 PM,54.0,21.9,29,29.96,10.0,Calm,Calm,-,N/A,,Clear,0,2012-12-12 03:52:00
8:52 PM,48.9,18.0,29,29.97,10.0,Calm,Calm,-,N/A,,Clear,0,2012-12-12 04:52:00
9:52 PM,46.9,19.0,33,29.97,10.0,North,4.6,-,N/A,,Clear,10,2012-12-12 05:52:00
10:52 PM,45.0,19.0,36,29.96,10.0,North,3.5,-,N/A,,Clear,360,2012-12-12 06:52:00
11:52 PM,45.0,19.9,37,29.96,10.0,NNW,5.8,-,N/A,,Clear,330,2012-12-12 07:52:00